This is the latest recevied weather packets stored in our database for station/object DG1GMY-10. If no packets are shown the sender has not sent any weather packets the latest 10 day(s).
| Time | Temp. | Humidity | Pressure | Rain* | Wind** | Luminosity | Snow |
|---|---|---|---|---|---|---|---|
| 1788179801 | 25° C | 45% | 1019.1 hPa | - | - | - | - |
| 1788176200 | 22.78° C | 50% | 1019.2 hPa | - | - | - | - |
| 1788172600 | 22.78° C | 57% | 1019.2 hPa | - | - | - | - |
| 1788169000 | 21.67° C | 69% | 1019.2 hPa | - | - | - | - |
| 1788165400 | 20.56° C | 74% | 1019.3 hPa | - | - | - | - |
| 1788161799 | 18.89° C | 100% | 1019 hPa | - | - | - | - |
| 1788158199 | 17.78° C | 100% | 1019 hPa | - | - | - | - |
| 1788154599 | 17.22° C | 100% | 1018.6 hPa | - | - | - | - |
| 1788150999 | 17.22° C | 100% | 1018.2 hPa | - | - | - | - |
| 1788147399 | 17.78° C | 100% | 1017.8 hPa | - | - | - | - |
| 1788143799 | 18.33° C | 100% | 1017.5 hPa | - | - | - | - |
| 1788140199 | 18.33° C | 100% | 1017 hPa | - | - | - | - |
| 1788136599 | 18.89° C | 100% | 1017 hPa | - | - | - | - |
| 1788132999 | 18.89° C | 100% | 1016.2 hPa | - | - | - | - |
| 1788129399 | 20.56° C | 75% | 1014.9 hPa | - | - | - | - |
| 1788125798 | 21.11° C | 70% | 1015 hPa | - | - | - | - |
| 1788122198 | 20.56° C | 70% | 1015.4 hPa | - | - | - | - |
| 1788118598 | 21.11° C | 67% | 1015.7 hPa | - | - | - | - |
| 1788114998 | 23.33° C | 58% | 1015.5 hPa | - | - | - | - |
| 1788111398 | 28.33° C | 42% | 1015.7 hPa | - | - | - | - |
| 1788107798 | 36.11° C | 29% | 1015.5 hPa | - | - | - | - |
| 1788104198 | 40° C | 25% | 1015.7 hPa | - | - | - | - |
| 1788100598 | 35° C | 35% | 1016.3 hPa | - | - | - | - |
| 1788096997 | 31.11° C | 43% | 1017 hPa | - | - | - | - |
| 1788093397 | 28.33° C | 56% | 1017.6 hPa | - | - | - | - |
* Rain since midnight (hover to see other rain measurements)
** Current wind speed in m/s (hover to see current wind gust speed)